Time;durP1;ratioP1;P1;durP2;ratioP2;P2;SDS_P1;SDS_P2;PMS_P1;PMS_P2;Temp;Humidity;BMP_temperature;BMP_pressure;BME280_temperature;BME280_humidity;BME280_pressure;Samples;Min_cycle;Max_cycle;Signal;HPM_P1;HPM_P2
2021/09/07 00:03:36;;;;;;;17.85;15.60;;;23.70;53.50;;;;;;4738571;55;21076;-30
2021/09/07 00:08:37;;;;;;;17.00;15.20;;;23.70;53.50;;;;;;4754633;55;21017;-35
2021/09/07 00:13:38;;;;;;;18.85;15.98;;;23.70;53.50;;;;;;4746031;55;21033;-33
2021/09/07 00:18:39;;;;;;;17.17;15.32;;;23.70;53.50;;;;;;4739551;55;21539;-30
2021/09/07 00:23:40;;;;;;;17.55;15.48;;;23.70;53.50;;;;;;4731462;54;21157;-33
2021/09/07 00:28:40;;;;;;;19.42;15.40;;;23.70;53.40;;;;;;4740518;55;21113;-35
2021/09/07 00:33:41;;;;;;;17.42;14.77;;;23.70;53.40;;;;;;4736325;55;21487;-31
2021/09/07 00:38:42;;;;;;;16.98;15.15;;;23.70;53.40;;;;;;4744302;55;22103;-33
2021/09/07 00:43:43;;;;;;;17.98;15.15;;;23.70;53.40;;;;;;4759260;54;21013;-32
2021/09/07 00:48:44;;;;;;;16.90;15.05;;;23.70;53.40;;;;;;4733946;55;21022;-29
2021/09/07 00:53:45;;;;;;;16.52;14.73;;;23.70;53.40;;;;;;4776359;54;21005;-33
2021/09/07 00:58:47;;;;;;;16.90;14.52;;;23.70;53.40;;;;;;4764744;54;21072;-33
2021/09/07 01:03:48;;;;;;;16.25;14.45;;;23.70;53.30;;;;;;4763839;54;20997;-33
2021/09/07 01:08:49;;;;;;;15.70;14.10;;;23.70;53.30;;;;;;4731436;55;21029;-32
2021/09/07 01:13:50;;;;;;;16.77;15.05;;;23.70;53.30;;;;;;4760089;55;21533;-32
2021/09/07 01:18:51;;;;;;;16.08;14.48;;;23.70;53.30;;;;;;4732328;58;21022;-31
2021/09/07 01:23:52;;;;;;;16.17;14.57;;;23.70;53.30;;;;;;4732330;54;21025;-33
2021/09/07 01:28:54;;;;;;;16.48;14.10;;;23.70;53.30;;;;;;4731060;59;21041;-33
2021/09/07 01:33:55;;;;;;;15.63;14.02;;;23.70;53.30;;;;;;4744794;54;21001;-31
2021/09/07 01:38:56;;;;;;;15.10;13.55;;;23.70;53.20;;;;;;4732720;54;21598;-33
2021/09/07 01:43:57;;;;;;;15.77;13.98;;;23.70;53.30;;;;;;4746208;55;21170;-34
2021/09/07 01:48:57;;;;;;;16.73;13.62;;;23.70;53.20;;;;;;4731474;59;21022;-35
2021/09/07 01:54:01;;;;;;;14.65;12.82;;;23.70;53.30;;;;;;4731430;56;21567;-33
2021/09/07 01:59:03;;;;;;;15.40;13.80;;;23.70;53.20;;;;;;4773518;54;21042;-32
2021/09/07 02:04:04;;;;;;;14.85;13.25;;;23.70;53.10;;;;;;4761131;54;21073;-33
2021/09/07 02:09:05;;;;;;;14.40;12.90;;;23.70;53.10;;;;;;4731629;58;21076;-29
2021/09/07 02:14:06;;;;;;;15.43;13.18;;;23.70;53.10;;;;;;4775334;55;21550;-31
2021/09/07 02:19:06;;;;;;;14.20;12.68;;;23.70;53.10;;;;;;4731270;58;21013;-33
2021/09/07 02:24:07;;;;;;;14.20;12.70;;;23.70;53.10;;;;;;4730742;59;20997;-32
2021/09/07 02:29:09;;;;;;;15.55;13.30;;;23.70;53.10;;;;;;4751169;55;21065;-34
2021/09/07 02:34:09;;;;;;;13.35;11.93;;;23.70;53.00;;;;;;4751240;55;21465;-33
2021/09/07 02:39:13;;;;;;;14.77;12.95;;;23.60;53.00;;;;;;4778498;55;21033;-30
2021/09/07 02:44:14;;;;;;;14.70;13.18;;;23.70;53.00;;;;;;4750322;55;21512;-34
2021/09/07 02:49:15;;;;;;;15.48;12.93;;;23.70;53.10;;;;;;4747666;55;21037;-32
2021/09/07 02:54:16;;;;;;;13.95;12.55;;;23.60;52.90;;;;;;4747626;54;21041;-32
2021/09/07 02:59:17;;;;;;;14.65;13.15;;;23.60;52.90;;;;;;4731571;59;22000;-36
2021/09/07 03:04:18;;;;;;;14.30;12.30;;;23.60;52.90;;;;;;4764125;55;21021;-33
2021/09/07 03:09:18;;;;;;;13.77;12.35;;;23.60;52.90;;;;;;4731752;59;21052;-29
2021/09/07 03:14:19;;;;;;;13.48;12.07;;;23.60;52.80;;;;;;4748814;55;22193;-33
2021/09/07 03:19:20;;;;;;;12.75;11.45;;;23.60;52.90;;;;;;4742894;55;21013;-31
2021/09/07 03:24:21;;;;;;;13.20;11.80;;;23.60;52.80;;;;;;4751944;55;21041;-34
2021/09/07 03:29:22;;;;;;;13.35;11.95;;;23.60;52.80;;;;;;4745667;54;21038;-34
2021/09/07 03:34:23;;;;;;;13.62;12.23;;;23.60;52.70;;;;;;4735628;55;21005;-34
2021/09/07 03:39:23;;;;;;;13.27;11.95;;;23.60;52.70;;;;;;4752398;55;21018;-29
2021/09/07 03:44:24;;;;;;;13.52;12.13;;;23.60;52.70;;;;;;4737630;54;21080;-22
2021/09/07 03:49:25;;;;;;;12.45;11.20;;;23.60;52.70;;;;;;4752355;54;21120;-31
2021/09/07 03:54:27;;;;;;;13.18;11.85;;;23.60;52.70;;;;;;4755558;55;21009;-32
2021/09/07 03:59:28;;;;;;;12.93;11.63;;;23.60;52.70;;;;;;4754330;55;21073;-31
2021/09/07 04:04:29;;;;;;;12.65;11.25;;;23.60;52.70;;;;;;4817293;55;21510;-31
2021/09/07 04:09:30;;;;;;;12.45;11.15;;;23.60;52.60;;;;;;4732126;54;21028;-31
2021/09/07 04:14:31;;;;;;;12.95;10.73;;;23.60;52.60;;;;;;4752660;55;21080;-33
2021/09/07 04:19:35;;;;;;;13.62;11.32;;;23.60;52.60;;;;;;4731496;59;21004;-29
2021/09/07 04:24:35;;;;;;;12.25;10.95;;;23.60;52.60;;;;;;4768986;54;21112;-33
2021/09/07 04:29:36;;;;;;;12.60;11.32;;;23.60;52.60;;;;;;4730698;58;22399;-33
2021/09/07 04:34:37;;;;;;;12.57;11.27;;;23.60;52.60;;;;;;4784496;55;21122;-30
2021/09/07 04:39:38;;;;;;;12.02;10.82;;;23.60;52.40;;;;;;4736953;55;21041;-32
2021/09/07 04:44:39;;;;;;;11.73;10.52;;;23.60;52.50;;;;;;4750086;55;21562;-33
2021/09/07 04:49:39;;;;;;;12.27;10.98;;;23.60;52.50;;;;;;4740519;55;21033;-30
2021/09/07 04:54:40;;;;;;;11.80;10.55;;;23.50;52.40;;;;;;4732150;59;21059;-26
2021/09/07 04:59:41;;;;;;;12.25;10.95;;;23.50;52.30;;;;;;4752301;54;21021;-29
2021/09/07 05:04:42;;;;;;;11.98;10.13;;;23.60;52.40;;;;;;4745458;55;21530;-32
2021/09/07 05:09:42;;;;;;;12.05;10.85;;;23.50;52.30;;;;;;4731521;59;21081;-25
2021/09/07 05:14:43;;;;;;;12.50;10.88;;;23.50;52.30;;;;;;4793035;55;21171;-29
2021/09/07 05:19:44;;;;;;;11.55;10.30;;;23.50;52.20;;;;;;4731196;59;21073;-29
2021/09/07 05:24:45;;;;;;;11.40;10.18;;;23.50;52.20;;;;;;4755147;55;21013;-32
2021/09/07 05:29:46;;;;;;;12.00;10.68;;;23.50;52.10;;;;;;4755873;55;21042;-32
2021/09/07 05:34:47;;;;;;;11.57;10.38;;;23.50;52.10;;;;;;4811090;55;21017;-28
2021/09/07 05:39:47;;;;;;;12.37;10.48;;;23.50;52.00;;;;;;4731509;59;21048;-33
2021/09/07 05:44:48;;;;;;;12.15;10.55;;;23.40;52.00;;;;;;4761611;55;21009;-33
2021/09/07 05:49:49;;;;;;;12.32;9.80;;;23.50;52.00;;;;;;4735379;55;21053;-31
2021/09/07 05:54:50;;;;;;;12.20;10.50;;;23.50;51.90;;;;;;4733430;55;21049;-32
2021/09/07 05:59:54;;;;;;;14.77;11.02;;;23.50;51.90;;;;;;4730897;59;21544;-29
2021/09/07 06:04:55;;;;;;;12.40;11.07;;;23.50;51.90;;;;;;4750530;55;21495;-30
2021/09/07 06:09:55;;;;;;;11.95;10.63;;;23.50;51.90;;;;;;4731534;59;21061;-30
2021/09/07 06:14:56;;;;;;;14.23;10.65;;;23.40;51.60;;;;;;4777049;55;21019;-31
2021/09/07 06:19:57;;;;;;;11.95;10.60;;;23.40;52.00;;;;;;4734511;54;21006;-25
2021/09/07 06:24:58;;;;;;;12.90;11.23;;;23.40;51.80;;;;;;4753909;55;21524;-34
2021/09/07 06:29:59;;;;;;;10.98;9.88;;;23.40;51.70;;;;;;4795715;55;21026;-30
2021/09/07 06:34:59;;;;;;;11.07;9.93;;;23.40;51.70;;;;;;4741400;55;21037;-33
2021/09/07 06:40:00;;;;;;;12.45;10.98;;;23.40;51.70;;;;;;4756817;55;21005;-29
2021/09/07 06:45:05;;;;;;;13.23;11.05;;;23.40;51.70;;;;;;4736128;55;21061;-33
2021/09/07 06:50:06;;;;;;;13.30;10.93;;;23.40;51.70;;;;;;4754476;54;21148;-31
2021/09/07 06:55:09;;;;;;;14.15;11.35;;;23.40;52.20;;;;;;4758159;54;21030;-32
2021/09/07 07:00:11;;;;;;;11.38;10.27;;;23.40;51.70;;;;;;4774030;54;21002;-33
2021/09/07 07:05:12;;;;;;;13.43;10.73;;;23.40;51.70;;;;;;4730612;58;22281;-34
2021/09/07 07:10:13;;;;;;;12.15;10.88;;;23.40;51.70;;;;;;4759014;55;21116;-28
2021/09/07 07:15:14;;;;;;;12.73;11.12;;;23.40;51.70;;;;;;4775757;55;21669;-31
2021/09/07 07:20:14;;;;;;;13.23;11.77;;;23.40;51.90;;;;;;4731166;58;21691;-33
2021/09/07 07:25:15;;;;;;;13.43;11.80;;;23.40;52.20;;;;;;4748804;55;21085;-33
2021/09/07 07:30:16;;;;;;;12.82;11.35;;;23.50;52.30;;;;;;4741915;55;21069;-33
2021/09/07 07:35:17;;;;;;;14.02;12.57;;;23.60;52.50;;;;;;4774285;54;21005;-29
2021/09/07 07:40:18;;;;;;;14.35;12.55;;;23.60;52.60;;;;;;4731604;59;21067;-32
2021/09/07 07:45:19;;;;;;;14.68;13.13;;;23.60;52.70;;;;;;4730549;58;21555;-32
2021/09/07 07:50:20;;;;;;;16.67;14.35;;;23.60;52.80;;;;;;4730508;59;21096;-30
2021/09/07 07:55:21;;;;;;;18.92;16.42;;;23.60;52.90;;;;;;4794174;55;21566;-32
2021/09/07 08:00:21;;;;;;;20.20;15.88;;;23.70;52.80;;;;;;4744151;55;21053;-29
2021/09/07 08:05:22;;;;;;;19.40;15.68;;;23.70;53.00;;;;;;4768261;55;21013;-32
2021/09/07 08:10:23;;;;;;;18.90;15.40;;;23.70;53.10;;;;;;4731249;58;20997;-30
2021/09/07 08:15:24;;;;;;;17.67;15.68;;;23.70;53.10;;;;;;4770888;54;21065;-32
2021/09/07 08:20:25;;;;;;;21.55;16.65;;;23.70;53.30;;;;;;4742049;55;21021;-26
2021/09/07 08:25:26;;;;;;;23.42;18.05;;;23.80;53.20;;;;;;4731510;55;21121;-33
2021/09/07 08:30:28;;;;;;;21.10;18.42;;;23.80;53.20;;;;;;4740620;54;21153;-32
2021/09/07 08:35:29;;;;;;;21.67;17.55;;;23.70;53.10;;;;;;4736332;55;21037;-32
2021/09/07 08:40:30;;;;;;;40.85;32.30;;;23.80;53.10;;;;;;4746980;54;21057;-33
2021/09/07 08:45:32;;;;;;;144.00;111.43;;;23.80;53.00;;;;;;4734079;55;21627;-25
2021/09/07 08:50:33;;;;;;;176.60;137.57;;;23.80;52.70;;;;;;4760033;54;21073;-34
2021/09/07 08:55:33;;;;;;;171.13;133.77;;;23.80;52.50;;;;;;4731405;58;21077;-30
2021/09/07 09:00:34;;;;;;;147.98;117.43;;;23.80;52.30;;;;;;4748159;55;21009;-32
2021/09/07 09:05:35;;;;;;;133.37;106.57;;;23.80;52.80;;;;;;4761971;55;21483;-32
2021/09/07 09:10:36;;;;;;;115.80;94.97;;;23.80;52.10;;;;;;4738866;54;20998;-32
2021/09/07 09:15:39;;;;;;;108.43;83.00;;;23.80;52.00;;;;;;4761439;54;20981;-31
2021/09/07 09:20:41;;;;;;;102.57;77.03;;;23.90;51.80;;;;;;4751877;54;21049;-31
2021/09/07 09:25:43;;;;;;;95.12;72.37;;;23.90;52.10;;;;;;4736750;55;21717;-33
2021/09/07 09:30:50;;;;;;;93.35;69.90;;;23.90;52.10;;;;;;4731882;55;22174;-33
2021/09/07 09:36:02;;;;;;;85.57;66.05;;;23.90;52.10;;;;;;4750204;54;21009;-32
2021/09/07 09:41:05;;;;;;;81.70;63.63;;;23.90;52.10;;;;;;4731037;55;21555;-33
2021/09/07 09:46:26;;;;;;;79.28;61.78;;;23.90;52.20;;;;;;4730933;54;21001;-34
2021/09/07 09:51:27;;;;;;;80.50;60.78;;;23.90;52.20;;;;;;4731624;58;21462;-29
2021/09/07 09:56:28;;;;;;;76.40;59.47;;;23.90;52.10;;;;;;4762241;54;21077;-32
2021/09/07 10:01:30;;;;;;;73.40;57.55;;;23.90;52.10;;;;;;4746479;55;21547;-31
2021/09/07 10:06:31;;;;;;;72.47;54.88;;;24.00;52.10;;;;;;4731431;58;20997;-32
2021/09/07 10:11:33;;;;;;;73.03;56.42;;;24.00;52.10;;;;;;4736763;55;20994;-32
2021/09/07 10:16:44;;;;;;;67.40;52.67;;;23.90;51.90;;;;;;4745086;54;21002;-31
2021/09/07 10:26:57;;;;;;;63.38;48.50;;;24.00;51.00;;;;;;4754655;54;21093;-33
2021/09/07 10:31:58;;;;;;;57.70;45.95;;;24.00;50.40;;;;;;4744693;54;21517;-28
2021/09/07 10:37:04;;;;;;;58.78;43.60;;;24.00;49.40;;;;;;4732669;55;21014;-34
2021/09/07 10:42:07;;;;;;;56.28;44.13;;;24.10;49.80;;;;;;4754693;54;21507;-30
2021/09/07 10:47:13;;;;;;;78.22;61.40;;;24.10;49.60;;;;;;4768030;54;21081;-29
2021/09/07 10:52:51;;;;;;;73.68;58.75;;;24.10;49.20;;;;;;4756085;54;21001;-31
2021/09/07 10:57:56;;;;;;;75.43;56.72;;;24.10;49.30;;;;;;4728760;55;21033;-27
2021/09/07 11:03:06;;;;;;;69.32;55.25;;;24.10;49.80;;;;;;4762663;54;21562;-30
2021/09/07 11:08:43;;;;;;;71.65;54.30;;;24.20;50.30;;;;;;4793574;54;21543;-30
2021/09/07 11:13:44;;;;;;;66.45;50.08;;;24.20;50.00;;;;;;4734121;55;21484;-30
2021/09/07 11:18:47;;;;;;;60.60;46.17;;;24.20;50.00;;;;;;4731153;55;21085;-32
2021/09/07 11:23:48;;;;;;;54.00;42.13;;;24.20;49.20;;;;;;4742714;55;21591;-29
2021/09/07 11:28:49;;;;;;;54.30;40.03;;;24.30;49.60;;;;;;4747111;55;21061;-32
2021/09/07 11:33:52;;;;;;;48.45;37.72;;;24.30;49.10;;;;;;4747495;55;21087;-31
2021/09/07 11:38:53;;;;;;;45.75;36.90;;;24.30;49.00;;;;;;4744122;54;21049;-31
2021/09/07 11:43:59;;;;;;;47.62;37.75;;;24.30;49.10;;;;;;4730016;59;21107;-32
2021/09/07 11:49:18;;;;;;;49.20;37.33;;;24.30;48.90;;;;;;4765778;54;21037;-34
2021/09/07 11:54:19;;;;;;;44.75;36.80;;;24.30;49.20;;;;;;4753654;55;21001;-28
2021/09/07 11:59:20;;;;;;;41.42;35.17;;;24.30;49.20;;;;;;4731131;59;21842;-31
2021/09/07 12:04:23;;;;;;;43.60;34.35;;;24.30;49.40;;;;;;4734538;54;21128;-32
2021/09/07 12:09:30;;;;;;;44.35;36.10;;;24.30;49.40;;;;;;4736508;54;21182;-34
2021/09/07 12:14:45;;;;;;;41.75;34.78;;;24.30;49.50;;;;;;4762299;54;21461;-29
2021/09/07 12:19:51;;;;;;;43.97;33.15;;;24.30;49.60;;;;;;4750210;54;21124;-30
2021/09/07 12:25:17;;;;;;;40.88;34.20;;;24.30;49.60;;;;;;4765322;54;21102;-33
2021/09/07 12:30:32;;;;;;;42.60;32.63;;;24.30;49.70;;;;;;4761582;55;21587;-29
2021/09/07 12:35:52;;;;;;;38.97;31.92;;;24.30;49.80;;;;;;4745275;54;21017;-31
2021/09/07 12:40:56;;;;;;;39.15;31.45;;;24.30;50.10;;;;;;4765741;54;21001;-28
2021/09/07 12:46:03;;;;;;;40.35;31.27;;;24.30;50.50;;;;;;4741498;55;21080;-31
2021/09/07 12:51:04;;;;;;;38.22;31.10;;;24.40;50.80;;;;;;4743379;54;20985;-26
2021/09/07 12:56:07;;;;;;;38.75;32.17;;;24.40;50.90;;;;;;4730649;59;21034;-29
2021/09/07 13:01:08;;;;;;;36.40;30.77;;;24.40;51.40;;;;;;4740790;54;21001;-29
2021/09/07 13:06:10;;;;;;;36.03;30.65;;;24.50;51.80;;;;;;4754921;54;20994;-31
2021/09/07 13:11:12;;;;;;;37.72;29.25;;;24.50;51.90;;;;;;4733515;55;21567;-29
2021/09/07 13:16:14;;;;;;;38.00;30.05;;;24.50;52.20;;;;;;4753522;54;21554;-34
2021/09/07 13:21:15;;;;;;;34.53;28.95;;;24.50;52.40;;;;;;4733432;54;21014;-32
2021/09/07 13:26:16;;;;;;;40.50;30.83;;;24.50;52.70;;;;;;4766594;54;22168;-32
2021/09/07 13:31:17;;;;;;;36.30;29.33;;;24.60;52.80;;;;;;4750664;54;21005;-31
2021/09/07 13:36:18;;;;;;;34.20;29.23;;;24.60;53.70;;;;;;4737388;55;21002;-31
2021/09/07 13:41:19;;;;;;;34.78;28.95;;;24.60;53.20;;;;;;4752118;55;21641;-29
2021/09/07 13:46:19;;;;;;;35.00;28.50;;;24.60;53.50;;;;;;4752557;55;21037;-30
2021/09/07 13:51:20;;;;;;;33.63;28.42;;;24.70;53.60;;;;;;4741737;55;21053;-30
2021/09/07 13:56:21;;;;;;;36.92;28.95;;;24.70;53.80;;;;;;4728786;59;20993;-31
2021/09/07 14:01:22;;;;;;;32.90;26.58;;;24.60;53.40;;;;;;4753659;54;21096;-28
2021/09/07 14:06:23;;;;;;;34.08;27.33;;;24.70;52.90;;;;;;4745565;55;21017;-30
2021/09/07 14:11:24;;;;;;;32.15;27.52;;;24.60;53.00;;;;;;4760444;54;21013;-31
2021/09/07 14:16:25;;;;;;;33.60;27.87;;;24.60;53.10;;;;;;4769593;55;21002;-31
2021/09/07 14:21:26;;;;;;;34.20;27.23;;;24.70;53.20;;;;;;4743531;55;21467;-24
2021/09/07 14:26:27;;;;;;;30.98;25.40;;;24.70;53.50;;;;;;4772229;55;21029;-31
2021/09/07 14:31:28;;;;;;;33.45;25.88;;;24.60;53.50;;;;;;4731076;59;21006;-32
2021/09/07 14:36:29;;;;;;;32.15;25.85;;;24.60;53.60;;;;;;4772385;55;21001;-30
2021/09/07 14:41:30;;;;;;;30.83;26.80;;;24.60;53.70;;;;;;4754839;54;21030;-33
2021/09/07 14:46:32;;;;;;;29.12;26.02;;;24.60;53.80;;;;;;4731102;59;21141;-28
2021/09/07 14:51:32;;;;;;;30.58;26.02;;;24.60;53.80;;;;;;4745663;54;21535;-32
2021/09/07 14:56:33;;;;;;;30.48;25.27;;;24.60;53.90;;;;;;4755353;55;21009;-30
2021/09/07 15:01:34;;;;;;;31.12;25.52;;;24.60;54.00;;;;;;4738609;55;21018;-33
2021/09/07 15:06:35;;;;;;;30.33;25.65;;;24.60;54.00;;;;;;4779874;54;21536;-29
2021/09/07 15:11:36;;;;;;;29.30;26.00;;;24.60;53.90;;;;;;4731332;59;21021;-30
2021/09/07 15:16:37;;;;;;;29.95;25.77;;;24.60;54.00;;;;;;4731454;59;20997;-31
2021/09/07 15:21:38;;;;;;;29.27;24.33;;;24.50;53.90;;;;;;4802862;55;21511;-32
2021/09/07 15:26:39;;;;;;;29.10;25.55;;;24.50;53.90;;;;;;4736256;55;21002;-32
2021/09/07 15:31:40;;;;;;;29.63;24.73;;;24.50;54.00;;;;;;4753784;54;21105;-33
2021/09/07 15:36:44;;;;;;;31.15;25.23;;;24.40;54.00;;;;;;4733684;54;21048;-33
2021/09/07 15:41:46;;;;;;;28.42;24.87;;;24.40;54.00;;;;;;4733084;55;21013;-31
2021/09/07 15:46:47;;;;;;;29.48;24.75;;;24.40;54.00;;;;;;4757379;55;21487;-32
2021/09/07 15:51:48;;;;;;;27.67;23.80;;;24.40;54.10;;;;;;4750102;55;21092;-28
2021/09/07 15:56:49;;;;;;;26.73;23.83;;;24.30;54.00;;;;;;4745756;55;21100;-33
2021/09/07 16:01:50;;;;;;;27.58;23.35;;;24.30;54.00;;;;;;4744263;55;21037;-33
2021/09/07 16:06:51;;;;;;;27.65;24.15;;;24.30;54.00;;;;;;4739920;55;21507;-28
2021/09/07 16:11:56;;;;;;;26.35;23.55;;;24.30;54.10;;;;;;4731103;59;21446;-32
2021/09/07 16:16:57;;;;;;;27.75;24.15;;;24.30;54.10;;;;;;4741099;55;21482;-33
2021/09/07 16:21:58;;;;;;;26.33;22.55;;;24.30;54.10;;;;;;4767324;55;21052;-33
2021/09/07 16:27:01;;;;;;;25.67;22.87;;;24.30;54.10;;;;;;4748634;55;21049;-32
2021/09/07 16:32:02;;;;;;;26.77;23.38;;;24.30;54.10;;;;;;4794089;55;22043;-33
2021/09/07 16:37:03;;;;;;;26.65;23.90;;;24.30;54.10;;;;;;4747821;54;21137;-33
2021/09/07 16:42:04;;;;;;;26.62;23.58;;;24.20;54.00;;;;;;4744504;55;21001;-34
2021/09/07 16:47:07;;;;;;;28.48;23.30;;;24.20;54.00;;;;;;4739501;54;21466;-35
2021/09/07 16:52:09;;;;;;;26.77;23.33;;;24.20;54.00;;;;;;4734160;55;21015;-32
2021/09/07 16:57:10;;;;;;;26.55;22.70;;;24.20;54.70;;;;;;4740934;55;21448;-33
2021/09/07 17:02:10;;;;;;;25.90;23.02;;;24.20;54.00;;;;;;4729916;59;21001;-32
2021/09/07 17:07:19;;;;;;;25.15;22.40;;;24.20;54.00;;;;;;4735585;54;21006;-30
2021/09/07 17:12:19;;;;;;;25.37;21.90;;;24.10;53.90;;;;;;4731714;59;21452;-34
2021/09/07 17:17:20;;;;;;;24.15;21.55;;;24.10;54.00;;;;;;4767444;55;21114;-34
2021/09/07 17:22:21;;;;;;;25.90;23.08;;;24.10;54.00;;;;;;4741172;54;21001;-34
2021/09/07 17:27:22;;;;;;;27.30;22.52;;;24.20;54.00;;;;;;4754394;55;21025;-33
2021/09/07 17:48:56;;;;;;;23.17;20.67;;;24.10;53.80;;;;;;4755820;55;21186;-34
2021/09/07 17:53:57;;;;;;;23.10;20.65;;;24.10;53.80;;;;;;4731592;59;21033;-33
2021/09/07 17:58:58;;;;;;;23.98;21.48;;;24.10;53.80;;;;;;4733138;55;21057;-31
2021/09/07 18:03:59;;;;;;;24.85;22.15;;;24.10;53.70;;;;;;4730345;59;21065;-33
2021/09/07 18:08:59;;;;;;;23.73;20.98;;;24.10;53.60;;;;;;4731157;59;21025;-30
2021/09/07 18:14:00;;;;;;;25.80;22.98;;;24.10;53.60;;;;;;4753534;55;20994;-32
2021/09/07 18:19:04;;;;;;;24.65;22.05;;;24.10;53.50;;;;;;4753593;55;21460;-28
2021/09/07 18:24:06;;;;;;;24.08;21.50;;;24.10;53.50;;;;;;4731239;59;21623;-35
2021/09/07 18:29:07;;;;;;;25.30;21.55;;;24.10;53.40;;;;;;4760404;55;21089;-34
2021/09/07 18:34:08;;;;;;;24.52;21.92;;;24.10;53.40;;;;;;4777901;54;21009;-35
2021/09/07 18:39:10;;;;;;;22.25;19.85;;;24.10;53.30;;;;;;4743784;55;21053;-31
2021/09/07 18:44:10;;;;;;;24.90;21.17;;;24.10;53.30;;;;;;4784049;54;21021;-30
2021/09/07 18:49:11;;;;;;;24.10;21.02;;;24.10;53.20;;;;;;4804358;55;21017;-33
2021/09/07 18:54:12;;;;;;;24.55;21.50;;;24.10;53.20;;;;;;4731966;55;21451;-33
2021/09/07 18:59:13;;;;;;;23.90;21.33;;;24.10;53.20;;;;;;4736383;55;21014;-28
2021/09/07 19:04:14;;;;;;;25.55;21.02;;;24.10;53.10;;;;;;4738524;54;21017;-32
2021/09/07 19:09:15;;;;;;;23.42;20.92;;;24.10;53.10;;;;;;4732002;59;21017;-34
2021/09/07 19:14:16;;;;;;;23.17;20.67;;;24.10;53.10;;;;;;4737584;55;21544;-31
2021/09/07 19:19:17;;;;;;;22.30;19.98;;;24.10;53.10;;;;;;4751076;55;21048;-34
2021/09/07 19:24:18;;;;;;;23.98;20.42;;;24.10;53.10;;;;;;4764491;55;21072;-30
2021/09/07 19:29:19;;;;;;;22.00;19.70;;;24.10;53.00;;;;;;4739035;55;21046;-26
2021/09/07 19:34:20;;;;;;;23.17;20.75;;;24.10;52.90;;;;;;4744591;55;21752;-33
2021/09/07 19:39:21;;;;;;;22.95;20.23;;;24.10;53.00;;;;;;4732471;55;21056;-33
2021/09/07 19:44:23;;;;;;;23.80;21.25;;;24.10;52.90;;;;;;4737882;54;21017;-24
2021/09/07 19:49:23;;;;;;;23.33;20.77;;;24.10;52.90;;;;;;4740647;54;21041;-33
2021/09/07 19:54:24;;;;;;;22.20;19.83;;;24.10;52.90;;;;;;4740399;55;21107;-32
2021/09/07 19:59:25;;;;;;;21.98;19.67;;;24.10;53.40;;;;;;4736604;55;21483;-32
2021/09/07 20:04:27;;;;;;;22.25;19.92;;;24.10;52.80;;;;;;4743413;55;21563;-33
2021/09/07 20:09:27;;;;;;;22.00;19.70;;;24.10;52.70;;;;;;4731714;59;21020;-32
2021/09/07 20:14:28;;;;;;;22.40;19.70;;;24.10;52.70;;;;;;4741339;55;21013;-29
2021/09/07 20:19:29;;;;;;;22.25;19.85;;;24.10;52.70;;;;;;4742628;54;21029;-32
2021/09/07 20:24:30;;;;;;;21.75;19.45;;;24.10;52.60;;;;;;4756153;55;21112;-33
2021/09/07 20:29:31;;;;;;;23.27;20.08;;;24.00;52.90;;;;;;4737439;55;21527;-27
2021/09/07 20:34:32;;;;;;;22.55;19.70;;;24.00;52.50;;;;;;4742640;55;21045;-34
2021/09/07 20:39:32;;;;;;;21.27;19.05;;;24.00;52.50;;;;;;4744742;55;21107;-33
2021/09/07 20:44:33;;;;;;;21.62;19.02;;;24.00;52.50;;;;;;4788587;55;21060;-32
2021/09/07 20:49:34;;;;;;;22.20;19.75;;;24.00;52.40;;;;;;4731976;59;21053;-32
2021/09/07 20:54:35;;;;;;;20.67;18.58;;;24.00;52.30;;;;;;4745156;55;21057;-33
2021/09/07 20:59:35;;;;;;;20.37;18.25;;;24.00;52.30;;;;;;4740092;55;21009;-35
2021/09/07 21:04:36;;;;;;;20.42;18.25;;;24.00;52.30;;;;;;4735656;55;21527;-33
2021/09/07 21:09:37;;;;;;;20.10;17.92;;;24.00;52.30;;;;;;4804339;54;21096;-33
2021/09/07 21:14:38;;;;;;;20.40;18.20;;;24.00;52.30;;;;;;4773869;55;21033;-27
2021/09/07 21:19:39;;;;;;;20.40;18.33;;;24.00;52.20;;;;;;4738138;55;21013;-33
2021/09/07 21:24:39;;;;;;;21.25;18.23;;;24.00;52.90;;;;;;4731607;58;21049;-33
2021/09/07 21:29:40;;;;;;;19.62;17.50;;;24.00;52.80;;;;;;4746871;55;21133;-31
2021/09/07 21:34:41;;;;;;;21.42;17.75;;;24.00;52.20;;;;;;4731341;55;22299;-32
2021/09/07 21:39:42;;;;;;;21.25;18.75;;;24.00;52.10;;;;;;4745541;55;21076;-33
2021/09/07 21:44:43;;;;;;;19.37;17.05;;;24.00;52.10;;;;;;4765076;55;21859;-29
2021/09/07 21:49:44;;;;;;;20.25;18.05;;;24.00;52.20;;;;;;4776008;55;20992;-31
2021/09/07 21:54:44;;;;;;;19.60;17.48;;;24.00;52.10;;;;;;4745059;55;21077;-33
2021/09/07 21:59:45;;;;;;;19.98;17.85;;;23.90;52.10;;;;;;4731515;59;20994;-33
2021/09/07 22:04:48;;;;;;;18.73;16.73;;;24.00;52.10;;;;;;4750966;55;21026;-31
2021/09/07 22:09:48;;;;;;;19.20;17.20;;;24.00;52.00;;;;;;4775444;55;20998;-35
2021/09/07 22:14:49;;;;;;;18.50;16.50;;;23.90;52.00;;;;;;4744351;55;21009;-28
2021/09/07 22:19:50;;;;;;;18.80;16.80;;;24.00;52.20;;;;;;4735776;55;21021;-34
2021/09/07 22:24:53;;;;;;;18.85;16.85;;;24.00;52.00;;;;;;4750907;55;21018;-33
2021/09/07 22:29:54;;;;;;;19.30;17.15;;;23.90;51.90;;;;;;4739304;54;21550;-33
2021/09/07 22:34:55;;;;;;;19.08;16.65;;;23.90;51.90;;;;;;4743862;54;21103;-33
2021/09/07 22:39:56;;;;;;;18.40;15.93;;;23.90;51.90;;;;;;4774084;54;21155;-34
2021/09/07 22:44:57;;;;;;;19.73;17.62;;;23.90;51.90;;;;;;4764849;54;21228;-31
2021/09/07 22:49:58;;;;;;;18.23;16.33;;;23.90;51.80;;;;;;4731115;59;21133;-33
2021/09/07 22:54:59;;;;;;;18.73;16.62;;;23.90;51.80;;;;;;4748595;55;21141;-33
2021/09/07 23:00:00;;;;;;;18.80;16.80;;;23.90;51.80;;;;;;4736433;55;21045;-33
2021/09/07 23:05:01;;;;;;;19.20;16.25;;;23.90;51.70;;;;;;4752091;55;21013;-33
2021/09/07 23:10:02;;;;;;;18.20;16.30;;;23.90;51.70;;;;;;4742669;55;21599;-32
2021/09/07 23:15:04;;;;;;;17.85;15.95;;;23.90;51.60;;;;;;4750173;54;21140;-34
2021/09/07 23:20:06;;;;;;;17.85;16.05;;;23.90;51.60;;;;;;4749128;54;21117;-33
2021/09/07 23:25:08;;;;;;;17.70;15.90;;;23.90;51.60;;;;;;4755174;54;21033;-33
2021/09/07 23:30:09;;;;;;;17.65;15.68;;;23.90;51.60;;;;;;4764869;54;21073;-34
2021/09/07 23:35:10;;;;;;;17.37;15.45;;;23.90;51.60;;;;;;4771577;54;21030;-35
2021/09/07 23:40:12;;;;;;;17.33;15.50;;;23.90;51.60;;;;;;4793502;54;20997;-33
2021/09/07 23:45:13;;;;;;;16.85;15.18;;;23.90;51.60;;;;;;4736742;55;21032;-31
2021/09/07 23:50:14;;;;;;;17.27;14.65;;;23.90;51.60;;;;;;4753788;55;21112;-32
2021/09/07 23:55:15;;;;;;;16.77;15.00;;;23.90;51.60;;;;;;4760148;55;21025;-34
